createdAt,value
2019-04-06T00:02:10.806Z,77.70
2019-04-06T00:04:41.214Z,77.50
2019-04-06T00:07:11.363Z,77.20
2019-04-06T00:09:41.557Z,77.00
2019-04-06T00:12:11.843Z,76.90
2019-04-06T00:14:42.019Z,76.80
2019-04-06T00:17:12.370Z,76.50
2019-04-06T00:19:42.729Z,76.30
2019-04-06T00:22:12.958Z,76.30
2019-04-06T00:24:43.564Z,76.10
2019-04-06T00:27:13.822Z,75.90
2019-04-06T00:29:43.987Z,75.90
2019-04-06T00:32:15.664Z,75.70
2019-04-06T00:34:46.227Z,75.50
2019-04-06T00:37:16.643Z,75.10
2019-04-06T00:39:46.818Z,74.80
2019-04-06T00:42:17.220Z,74.70
2019-04-06T00:44:47.549Z,74.40
2019-04-06T00:47:18.010Z,74.30
2019-04-06T00:49:48.634Z,74.00
2019-04-06T00:54:12.478Z,73.70
2019-04-06T00:56:42.828Z,73.30
2019-04-06T00:59:13.183Z,73.10
2019-04-06T01:01:43.591Z,79.10
2019-04-06T01:04:14.312Z,72.80
2019-04-06T01:06:45.039Z,72.70
2019-04-06T01:09:15.885Z,72.40
2019-04-06T01:11:47.388Z,74.70
2019-04-06T01:14:18.153Z,71.70
2019-04-06T01:16:48.768Z,71.30
2019-04-06T01:19:19.176Z,70.90
2019-04-06T01:21:49.585Z,70.50
2019-04-06T01:24:19.993Z,70.30
2019-04-06T01:26:50.650Z,70.30
2019-04-06T01:29:20.846Z,70.00
2019-04-06T01:31:53.063Z,69.80
2019-04-06T01:34:23.792Z,69.30
2019-04-06T01:36:54.095Z,69.80
2019-04-06T01:39:24.620Z,68.90
2019-04-06T01:41:55.014Z,68.80
2019-04-06T01:44:25.354Z,68.60
2019-04-06T01:46:55.830Z,68.00
2019-04-06T01:49:26.424Z,68.10
2019-04-06T01:51:56.820Z,67.70
2019-04-06T01:54:27.978Z,67.40
2019-04-06T01:56:58.436Z,66.90
2019-04-06T01:59:28.695Z,66.20
2019-04-06T02:02:00.207Z,66.30
2019-04-06T02:04:30.571Z,66.30
2019-04-06T02:07:00.912Z,66.10
2019-04-06T02:09:31.133Z,65.80
2019-04-06T02:12:02.426Z,65.40
2019-04-06T02:14:33.074Z,65.40
2019-04-06T02:19:32.140Z,64.70
2019-04-06T02:22:02.373Z,64.20
2019-04-06T02:24:32.726Z,64.00
2019-04-06T02:27:03.328Z,63.60
2019-04-06T02:29:33.700Z,63.30
2019-04-06T02:32:05.504Z,63.00
2019-04-06T02:34:37.270Z,62.70
2019-04-06T02:37:08.811Z,62.50
2019-04-06T02:39:40.526Z,61.90
2019-04-06T02:42:12.251Z,61.90
2019-04-06T02:44:42.506Z,61.50
2019-04-06T02:47:13.122Z,61.30
2019-04-06T02:49:43.686Z,60.60
2019-04-06T02:52:13.913Z,60.70
2019-04-06T02:54:44.291Z,60.60
2019-04-06T02:57:14.642Z,60.60
2019-04-06T02:59:44.933Z,60.30
2019-04-06T03:02:15.308Z,59.90
2019-04-06T03:04:45.815Z,59.50
2019-04-06T03:07:16.374Z,59.80
2019-04-06T03:09:46.872Z,59.80
2019-04-06T03:12:17.264Z,59.50
2019-04-06T03:14:47.486Z,59.40
2019-04-06T03:17:17.944Z,59.20
2019-04-06T03:19:48.065Z,59.20
2019-04-06T03:22:18.532Z,58.70
2019-04-06T03:24:49.154Z,58.30
2019-04-06T03:27:19.530Z,58.50
2019-04-06T03:29:57.922Z,57.40
2019-04-06T03:32:21.693Z,57.90
2019-04-06T03:34:52.264Z,57.70
2019-04-06T03:37:38.749Z,57.90
2019-04-06T03:40:09.262Z,57.50
2019-04-06T03:42:39.644Z,57.50
2019-04-06T03:45:11.540Z,57.30
2019-04-06T03:47:42.281Z,56.90
2019-04-06T03:50:13.334Z,56.40
2019-04-06T03:52:43.973Z,56.10
2019-04-06T03:55:16.060Z,56.00
2019-04-06T03:57:46.702Z,56.20
2019-04-06T04:00:17.397Z,56.20
2019-04-06T04:02:47.945Z,56.40
2019-04-06T04:05:18.721Z,56.10
2019-04-06T04:07:49.050Z,56.10
2019-04-06T04:10:22.215Z,55.90
2019-04-06T04:12:52.382Z,55.80
2019-04-06T04:15:22.990Z,55.70
2019-04-06T04:17:53.647Z,55.40
2019-04-06T04:20:24.235Z,55.50
2019-04-06T04:22:54.575Z,55.40
2019-04-06T04:25:25.022Z,54.80
2019-04-06T04:27:55.591Z,55.20
2019-04-06T04:30:33.342Z,55.70
2019-04-06T04:32:58.345Z,55.20
2019-04-06T04:35:28.525Z,55.20
2019-04-06T04:37:58.818Z,55.00
2019-04-06T04:40:29.258Z,55.20
2019-04-06T04:45:30.005Z,54.40
2019-04-06T04:48:00.498Z,54.90
2019-04-06T04:50:30.927Z,54.60
2019-04-06T04:53:01.319Z,54.40
2019-04-06T04:55:31.568Z,54.30
2019-04-06T04:58:02.100Z,54.10
2019-04-06T05:00:32.341Z,53.80
2019-04-06T05:03:02.729Z,53.50
2019-04-06T05:05:32.925Z,53.20
2019-04-06T05:08:03.418Z,53.20
2019-04-06T05:10:33.887Z,53.40
2019-04-06T05:13:04.531Z,53.30
2019-04-06T05:15:37.619Z,53.20
2019-04-06T05:18:07.994Z,53.20
2019-04-06T05:20:38.202Z,52.50
2019-04-06T05:23:08.741Z,52.60
2019-04-06T05:25:39.113Z,52.80
2019-04-06T05:28:09.475Z,52.70
2019-04-06T05:30:39.642Z,52.60
2019-04-06T05:33:10.473Z,52.50
2019-04-06T05:35:41.027Z,52.30
2019-04-06T05:38:11.528Z,52.30
2019-04-06T05:40:41.750Z,52.20
2019-04-06T05:43:12.045Z,52.10
2019-04-06T05:45:42.597Z,52.10
2019-04-06T05:48:12.894Z,52.10
2019-04-06T05:50:43.263Z,51.60
2019-04-06T05:55:43.397Z,50.70
2019-04-06T05:58:13.941Z,51.30
2019-04-06T06:00:44.169Z,51.40
2019-04-06T06:03:15.524Z,51.50
2019-04-06T06:05:46.003Z,51.20
2019-04-06T06:08:16.695Z,50.70
2019-04-06T06:10:46.982Z,50.80
2019-04-06T06:13:17.302Z,50.70
2019-04-06T06:15:50.589Z,50.90
2019-04-06T06:18:26.460Z,50.90
2019-04-06T06:20:54.085Z,50.30
2019-04-06T06:23:24.549Z,50.30
2019-04-06T06:25:54.997Z,49.80
2019-04-06T06:28:25.203Z,49.70
2019-04-06T06:30:55.655Z,49.90
2019-04-06T06:33:25.822Z,49.90
2019-04-06T06:35:56.523Z,49.80
2019-04-06T06:38:26.907Z,49.80
2019-04-06T06:40:57.550Z,49.80
2019-04-06T06:43:27.727Z,49.80
2019-04-06T06:45:57.994Z,49.80
2019-04-06T06:48:28.313Z,49.90
2019-04-06T06:50:58.779Z,49.60
2019-04-06T06:53:29.139Z,49.50
2019-04-06T06:56:00.006Z,49.40
2019-04-06T06:58:30.413Z,49.20
2019-04-06T07:01:03.012Z,48.90
2019-04-06T07:03:32.117Z,48.90
2019-04-06T07:06:02.656Z,48.60
2019-04-06T07:08:32.994Z,48.40
2019-04-06T07:11:03.321Z,48.20
2019-04-06T07:13:33.882Z,48.10
2019-04-06T07:16:04.304Z,47.90
2019-04-06T07:18:34.909Z,47.90
2019-04-06T07:21:05.306Z,47.80
2019-04-06T07:23:35.561Z,47.90
2019-04-06T07:26:06.063Z,47.80
2019-04-06T07:28:38.089Z,48.20
2019-04-06T07:31:07.999Z,48.10
2019-04-06T07:33:38.382Z,48.10
2019-04-06T07:36:08.600Z,47.90
2019-04-06T07:38:39.028Z,48.00
2019-04-06T07:41:09.545Z,47.90
2019-04-06T07:43:39.836Z,47.60
2019-04-06T07:46:10.323Z,47.50
2019-04-06T07:48:40.654Z,47.50
2019-04-06T07:51:10.891Z,46.80
2019-04-06T07:53:41.277Z,46.60
2019-04-06T07:56:11.413Z,45.40
2019-04-06T07:58:48.603Z,46.20
2019-04-06T08:01:13.152Z,46.40
2019-04-06T08:03:43.621Z,46.70
2019-04-06T08:06:14.004Z,44.80
2019-04-06T08:08:44.574Z,44.70
2019-04-06T08:11:14.780Z,44.70
2019-04-06T08:13:45.146Z,44.90
2019-04-06T08:16:16.487Z,44.90
2019-04-06T08:18:47.974Z,45.00
2019-04-06T08:21:20.610Z,45.10
2019-04-06T08:23:51.797Z,45.20
2019-04-06T08:26:24.492Z,45.20
2019-04-06T08:29:01.886Z,45.10
2019-04-06T08:31:29.020Z,44.90
2019-04-06T08:33:59.738Z,44.80
2019-04-06T08:36:31.729Z,44.60
2019-04-06T08:39:03.525Z,44.40
2019-04-06T08:41:34.557Z,44.30
2019-04-06T08:44:06.394Z,44.40
2019-04-06T08:46:37.442Z,44.00
2019-04-06T08:49:09.254Z,43.80
2019-04-06T08:51:40.148Z,44.20
2019-04-06T08:54:10.768Z,43.90
2019-04-06T08:56:41.462Z,43.60
2019-04-06T08:59:13.541Z,43.40
2019-04-06T09:01:44.204Z,43.30
2019-04-06T09:04:14.792Z,43.30
2019-04-06T09:06:45.401Z,43.00
2019-04-06T09:09:15.876Z,42.60
2019-04-06T09:11:46.406Z,42.10
2019-04-06T09:14:16.938Z,42.70
2019-04-06T09:16:47.134Z,42.60
2019-04-06T09:19:17.999Z,42.40
2019-04-06T09:21:48.277Z,42.50
2019-04-06T09:24:18.694Z,42.40
2019-04-06T09:26:49.112Z,41.70
2019-04-06T09:29:23.605Z,42.30
2019-04-06T09:31:51.081Z,42.60
2019-04-06T09:34:21.535Z,42.60
2019-04-06T09:36:51.677Z,42.00
2019-04-06T09:39:21.997Z,42.60
2019-04-06T09:41:52.683Z,42.20
2019-04-06T09:44:24.273Z,42.70
2019-04-06T09:46:56.218Z,42.60
2019-04-06T09:49:27.791Z,42.70
2019-04-06T09:51:59.363Z,42.70
2019-04-06T09:54:30.998Z,42.80
2019-04-06T09:57:02.732Z,43.00
2019-04-06T09:59:36.788Z,43.10
2019-04-06T10:02:07.521Z,43.30
2019-04-06T10:04:39.105Z,43.30
2019-04-06T10:07:10.856Z,43.40
2019-04-06T10:09:42.767Z,43.60
2019-04-06T10:12:14.471Z,43.90
2019-04-06T10:14:46.106Z,43.70
2019-04-06T10:17:17.869Z,43.90
2019-04-06T10:19:49.347Z,44.00
2019-04-06T10:22:20.991Z,43.80
2019-04-06T10:24:52.526Z,44.50
2019-04-06T10:27:24.203Z,44.00
2019-04-06T10:29:55.984Z,44.10
2019-04-06T10:32:27.640Z,44.40
2019-04-06T10:34:59.165Z,44.60
2019-04-06T10:37:31.201Z,44.80
2019-04-06T10:40:02.830Z,44.90
2019-04-06T10:42:34.653Z,45.10
2019-04-06T10:45:07.427Z,45.30
2019-04-06T10:47:38.997Z,45.40
2019-04-06T10:50:10.505Z,45.60
2019-04-06T10:52:42.083Z,45.90
2019-04-06T10:55:13.765Z,45.90
2019-04-06T10:57:45.544Z,46.10
2019-04-06T11:00:17.390Z,46.20
2019-04-06T11:02:48.843Z,46.40
2019-04-06T11:05:20.705Z,46.50
2019-04-06T11:07:52.321Z,46.80
2019-04-06T11:10:24.165Z,47.00
2019-04-06T11:12:55.982Z,47.20
2019-04-06T11:15:27.536Z,47.40
2019-04-06T11:17:59.231Z,47.60
2019-04-06T11:20:30.731Z,47.80
2019-04-06T11:23:02.299Z,48.00
2019-04-06T11:25:34.247Z,48.30
2019-04-06T11:28:05.869Z,48.40
2019-04-06T11:30:37.675Z,48.60
2019-04-06T11:33:09.311Z,48.90
2019-04-06T11:35:40.807Z,49.20
2019-04-06T11:38:12.265Z,49.50
2019-04-06T11:40:44.015Z,49.80
2019-04-06T11:43:15.674Z,50.10
2019-04-06T11:45:47.141Z,50.30
2019-04-06T11:48:19.131Z,50.70
2019-04-06T11:50:50.899Z,51.70
2019-04-06T11:53:22.661Z,51.70
2019-04-06T11:55:54.420Z,52.00
2019-04-06T11:58:26.146Z,52.20
2019-04-06T12:00:57.697Z,52.30
2019-04-06T12:03:29.542Z,52.50
2019-04-06T12:06:01.120Z,52.60
2019-04-06T12:08:32.886Z,52.90
2019-04-06T12:11:04.424Z,53.10
2019-04-06T12:13:36.069Z,53.30
2019-04-06T12:16:08.031Z,53.50
2019-04-06T12:18:39.650Z,53.70
2019-04-06T12:21:11.146Z,53.80
2019-04-06T12:23:42.744Z,54.00
2019-04-06T12:26:14.278Z,54.10
2019-04-06T12:28:45.971Z,54.30
2019-04-06T12:31:17.546Z,54.50
2019-04-06T12:33:49.106Z,54.60
2019-04-06T12:36:20.799Z,54.80
2019-04-06T12:38:52.416Z,55.00
2019-04-06T12:41:24.093Z,55.10
2019-04-06T12:43:55.615Z,55.30
2019-04-06T12:46:27.462Z,55.40
2019-04-06T12:48:59.149Z,55.60
2019-04-06T12:51:30.677Z,55.80
2019-04-06T12:54:02.568Z,56.00
2019-04-06T12:56:34.284Z,56.20
2019-04-06T12:59:08.325Z,56.20
2019-04-06T13:01:39.756Z,56.30
2019-04-06T13:04:11.416Z,56.50
2019-04-06T13:06:42.829Z,56.60
2019-04-06T13:09:14.485Z,56.70
2019-04-06T13:11:46.267Z,56.70
2019-04-06T13:14:18.057Z,56.70
2019-04-06T13:16:49.858Z,57.30
2019-04-06T13:21:52.390Z,56.60
2019-04-06T13:24:24.049Z,57.30
2019-04-06T13:26:55.507Z,57.50
2019-04-06T13:29:27.242Z,57.80
2019-04-06T13:31:58.940Z,57.90
2019-04-06T13:34:30.647Z,58.10
2019-04-06T13:37:02.343Z,58.10
2019-04-06T13:39:33.989Z,58.20
2019-04-06T13:42:05.824Z,58.20
2019-04-06T13:44:37.474Z,58.50
2019-04-06T13:47:09.087Z,58.30
2019-04-06T13:49:40.728Z,58.50
2019-04-06T13:52:12.447Z,58.60
2019-04-06T13:54:44.076Z,58.70
2019-04-06T13:57:15.695Z,58.70
2019-04-06T13:59:47.304Z,58.80
2019-04-06T14:02:19.387Z,59.00
2019-04-06T14:04:50.983Z,59.00
2019-04-06T14:07:22.600Z,59.00
2019-04-06T14:09:54.522Z,59.10
2019-04-06T14:12:26.156Z,59.20
2019-04-06T14:14:57.804Z,59.30
2019-04-06T14:17:29.432Z,59.40
2019-04-06T14:20:01.254Z,59.50
2019-04-06T14:22:32.967Z,59.70
2019-04-06T14:25:05.033Z,59.80
2019-04-06T14:27:36.969Z,59.90
2019-04-06T14:30:10.333Z,60.00
2019-04-06T14:32:42.197Z,60.00
2019-04-06T14:35:13.782Z,60.20
2019-04-06T14:37:45.509Z,60.40
2019-04-06T14:40:17.366Z,60.80
2019-04-06T14:42:49.311Z,61.30
2019-04-06T14:45:21.119Z,61.70
2019-04-06T14:47:52.552Z,61.90
2019-04-06T14:50:24.169Z,62.10
2019-04-06T14:52:56.054Z,62.10
2019-04-06T14:55:27.743Z,62.00
2019-04-06T15:00:31.176Z,61.40
2019-04-06T15:03:02.754Z,62.30
2019-04-06T15:05:34.360Z,62.70
2019-04-06T15:08:05.943Z,62.70
2019-04-06T15:10:37.565Z,63.00
2019-04-06T15:13:09.172Z,63.00
2019-04-06T15:15:40.746Z,63.10
2019-04-06T15:18:12.638Z,63.00
2019-04-06T15:20:44.344Z,63.10
2019-04-06T15:23:16.026Z,63.30
2019-04-06T15:25:48.271Z,63.60
2019-04-06T15:28:19.810Z,64.40
2019-04-06T15:30:51.798Z,65.00
2019-04-06T15:33:23.447Z,65.50
2019-04-06T15:35:55.181Z,65.60
2019-04-06T15:38:27.073Z,65.50
2019-04-06T15:40:58.705Z,65.50
2019-04-06T15:43:30.194Z,65.40
2019-04-06T15:46:01.788Z,65.40
2019-04-06T15:48:39.060Z,65.50
2019-04-06T15:51:06.409Z,65.50
2019-04-06T15:53:37.997Z,65.60
2019-04-06T15:56:09.553Z,65.90
2019-04-06T15:58:41.117Z,66.20
2019-04-06T16:01:12.823Z,66.40
2019-04-06T16:03:44.313Z,66.50
2019-04-06T16:06:15.890Z,66.50
2019-04-06T16:08:47.395Z,66.40
2019-04-06T16:11:19.217Z,66.30
2019-04-06T16:13:51.024Z,66.30
2019-04-06T16:16:22.805Z,66.30
2019-04-06T16:18:54.360Z,66.30
2019-04-06T16:21:25.940Z,66.40
2019-04-06T16:24:03.560Z,66.30
2019-04-06T16:26:30.411Z,66.30
2019-04-06T16:29:02.309Z,66.30
2019-04-06T16:31:34.216Z,66.30
2019-04-06T16:34:06.139Z,66.50
2019-04-06T16:36:37.726Z,66.60
2019-04-06T16:39:10.378Z,66.70
2019-04-06T16:41:42.181Z,67.30
2019-04-06T16:44:14.003Z,66.70
2019-04-06T16:46:45.797Z,66.70
2019-04-06T16:49:17.678Z,66.80
2019-04-06T16:51:49.593Z,66.60
2019-04-06T16:54:21.500Z,66.70
2019-04-06T16:56:53.338Z,66.80
2019-04-06T16:59:25.005Z,66.90
2019-04-06T17:01:56.464Z,67.10
2019-04-06T17:04:28.146Z,67.00
2019-04-06T17:06:59.641Z,67.20
2019-04-06T17:09:31.513Z,67.20
2019-04-06T17:12:03.333Z,67.20
2019-04-06T17:14:34.914Z,67.50
2019-04-06T17:17:06.947Z,67.50
2019-04-06T17:19:38.412Z,67.70
2019-04-06T17:22:10.072Z,67.80
2019-04-06T17:24:41.547Z,67.80
2019-04-06T17:27:13.179Z,67.90
2019-04-06T17:29:44.918Z,68.00
2019-04-06T17:32:16.591Z,68.00
2019-04-06T17:34:53.433Z,68.10
2019-04-06T17:37:21.084Z,68.20
2019-04-06T17:39:52.732Z,68.30
2019-04-06T17:42:24.618Z,68.30
2019-04-06T17:44:56.575Z,68.40
2019-04-06T17:47:28.131Z,68.40
2019-04-06T17:49:59.614Z,68.40
2019-04-06T17:52:31.115Z,68.50
2019-04-06T17:55:02.779Z,68.60
2019-04-06T17:57:34.343Z,68.60
2019-04-06T18:00:07.346Z,68.60
2019-04-06T18:02:47.865Z,68.80
2019-04-06T18:05:12.549Z,68.80
2019-04-06T18:07:44.970Z,68.80
2019-04-06T18:10:17.280Z,68.90
2019-04-06T18:12:50.118Z,69.20
2019-04-06T18:15:20.227Z,69.40
2019-04-06T18:17:50.718Z,69.70
2019-04-06T18:20:21.113Z,69.70
2019-04-06T18:22:51.393Z,69.70
2019-04-06T18:25:21.965Z,69.70
2019-04-06T18:27:52.625Z,69.80
2019-04-06T18:30:23.030Z,69.80
2019-04-06T18:33:01.241Z,69.90
2019-04-06T18:35:26.127Z,70.10
2019-04-06T18:37:57.829Z,70.20
2019-04-06T18:40:29.334Z,70.30
2019-04-06T18:42:59.821Z,70.30
2019-04-06T18:45:31.260Z,70.50
2019-04-06T18:48:01.689Z,70.80
2019-04-06T18:50:36.516Z,71.00
2019-04-06T18:53:03.786Z,71.30
2019-04-06T18:55:34.221Z,71.60
2019-04-06T18:58:12.236Z,71.90
2019-04-06T19:00:36.070Z,72.20
2019-04-06T19:03:13.904Z,72.40
2019-04-06T19:05:38.102Z,72.70
2019-04-06T19:08:08.476Z,72.90
2019-04-06T19:10:39.972Z,73.00
2019-04-06T19:13:10.362Z,73.30
2019-04-06T19:15:41.105Z,73.50
2019-04-06T19:18:11.395Z,73.80
2019-04-06T19:20:41.782Z,73.90
2019-04-06T19:23:12.070Z,73.90
2019-04-06T19:25:43.178Z,73.90
2019-04-06T19:28:13.689Z,73.80
2019-04-06T19:30:44.437Z,73.70
2019-04-06T19:33:23.795Z,73.50
2019-04-06T19:35:46.378Z,73.60
2019-04-06T19:38:16.810Z,73.50
2019-04-06T19:40:47.707Z,73.60
2019-04-06T19:43:18.544Z,73.80
2019-04-06T19:45:49.007Z,73.80
2019-04-06T19:48:19.995Z,73.80
2019-04-06T19:50:50.366Z,73.80
2019-04-06T19:53:20.579Z,73.90
2019-04-06T19:55:50.954Z,73.90
2019-04-06T19:58:21.577Z,73.90
2019-04-06T20:00:52.190Z,73.90
2019-04-06T20:03:33.697Z,74.10
2019-04-06T20:05:54.230Z,74.10
2019-04-06T20:08:24.392Z,74.10
2019-04-06T20:10:54.636Z,74.20
2019-04-06T20:13:25.007Z,74.40
2019-04-06T20:15:55.532Z,74.50
2019-04-06T20:18:26.256Z,74.50
2019-04-06T20:20:56.569Z,74.70
2019-04-06T20:23:27.100Z,74.80
2019-04-06T20:25:57.754Z,74.70
2019-04-06T20:28:28.233Z,74.70
2019-04-06T20:30:58.752Z,74.70
2019-04-06T20:33:29.486Z,74.70
2019-04-06T20:35:59.830Z,74.60
2019-04-06T20:38:31.201Z,74.50
2019-04-06T20:41:01.594Z,74.60
2019-04-06T20:43:32.323Z,74.70
2019-04-06T20:46:02.836Z,74.80
2019-04-06T20:48:33.661Z,75.10
2019-04-06T20:51:04.341Z,75.60
2019-04-06T20:53:35.345Z,75.90
2019-04-06T20:56:06.366Z,76.00
2019-04-06T20:58:36.484Z,76.20
2019-04-06T21:01:07.038Z,76.10
2019-04-06T21:03:37.318Z,76.00
2019-04-06T21:06:08.592Z,76.10
2019-04-06T21:08:39.051Z,76.20
2019-04-06T21:11:09.368Z,76.10
2019-04-06T21:13:40.745Z,76.10
2019-04-06T21:16:11.257Z,76.00
2019-04-06T21:18:41.871Z,76.00
2019-04-06T21:21:12.128Z,76.00
2019-04-06T21:23:42.918Z,76.10
2019-04-06T21:26:13.504Z,76.60
2019-04-06T21:28:43.834Z,76.30
2019-04-06T21:31:14.203Z,76.60
2019-04-06T21:33:45.827Z,77.00
2019-04-06T21:36:16.266Z,77.30
2019-04-06T21:38:46.665Z,77.50
2019-04-06T21:41:17.034Z,77.60
2019-04-06T21:43:47.676Z,77.60
2019-04-06T21:46:18.213Z,77.80
2019-04-06T21:48:49.007Z,77.80
2019-04-06T21:51:19.367Z,78.50
2019-04-06T21:53:50.358Z,77.70
2019-04-06T21:56:20.653Z,77.60
2019-04-06T21:58:51.644Z,77.60
2019-04-06T22:01:23.035Z,77.70
2019-04-06T22:03:53.862Z,77.70
2019-04-06T22:06:25.465Z,77.70
2019-04-06T22:08:55.816Z,77.70
2019-04-06T22:11:26.537Z,77.70
2019-04-06T22:13:57.058Z,77.80
2019-04-06T22:16:27.344Z,77.80
2019-04-06T22:18:57.989Z,77.90
2019-04-06T22:21:28.301Z,78.00
2019-04-06T22:23:59.124Z,78.10
2019-04-06T22:26:29.452Z,78.00
2019-04-06T22:28:59.469Z,78.00
2019-04-06T22:31:30.545Z,77.90
2019-04-06T22:34:00.832Z,77.60
2019-04-06T22:36:31.276Z,77.50
2019-04-06T22:39:01.747Z,77.40
2019-04-06T22:41:32.335Z,77.30
2019-04-06T22:44:02.991Z,77.30
2019-04-06T22:46:33.726Z,77.60
2019-04-06T22:49:04.094Z,77.30
2019-04-06T22:51:34.512Z,77.30
2019-04-06T22:54:05.194Z,77.20
2019-04-06T22:56:35.477Z,77.20
2019-04-06T22:59:06.313Z,77.00
2019-04-06T23:01:39.238Z,77.00
2019-04-06T23:04:10.716Z,77.00
2019-04-06T23:06:42.511Z,77.00
2019-04-06T23:09:13.421Z,77.10
2019-04-06T23:11:44.706Z,77.20
2019-04-06T23:14:15.643Z,77.30
2019-04-06T23:16:46.174Z,77.40
2019-04-06T23:19:16.526Z,77.30
2019-04-06T23:21:46.779Z,77.30
2019-04-06T23:24:16.977Z,77.30
2019-04-06T23:26:47.466Z,77.20
2019-04-06T23:29:17.865Z,77.30
2019-04-06T23:31:48.389Z,77.20
2019-04-06T23:34:19.136Z,77.20
2019-04-06T23:36:49.951Z,77.40
2019-04-06T23:39:20.149Z,77.30
2019-04-06T23:41:50.678Z,77.30
2019-04-06T23:44:21.216Z,77.30
2019-04-06T23:46:51.760Z,77.20
2019-04-06T23:49:22.375Z,77.20
2019-04-06T23:51:53.267Z,77.20
2019-04-06T23:54:23.895Z,77.10
2019-04-06T23:56:54.286Z,77.00
2019-04-06T23:59:24.472Z,76.90
